Time;durP1;ratioP1;P1;durP2;ratioP2;P2;SDS_P1;SDS_P2;PMS_P1;PMS_P2;Temp;Humidity;BMP_temperature;BMP_pressure;BME280_temperature;BME280_humidity;BME280_pressure;Samples;Min_cycle;Max_cycle;Signal;HPM_P1;HPM_P2
2022/08/30 03:01:58;;;;;;;0.90;0.80;;;21.00;71.40;;;;;;5521304;22;20287;-71
2022/08/30 03:04:25;;;;;;;0.83;0.83;;;20.90;71.30;;;;;;5042602;28;20514;-73
2022/08/30 03:06:52;;;;;;;1.30;0.97;;;20.90;71.50;;;;;;5048364;28;20477;-73
2022/08/30 03:09:18;;;;;;;0.83;0.83;;;20.90;71.70;;;;;;5047549;28;20451;-72
2022/08/30 03:11:45;;;;;;;0.80;0.80;;;20.90;71.70;;;;;;5047050;28;20471;-73
2022/08/30 03:14:12;;;;;;;0.80;0.80;;;20.80;71.70;;;;;;5048028;28;20447;-73
2022/08/30 03:16:39;;;;;;;0.80;0.80;;;20.80;71.90;;;;;;5047792;28;20448;-73
2022/08/30 03:19:07;;;;;;;0.80;0.70;;;20.80;72.00;;;;;;5047412;28;20478;-72
2022/08/30 03:21:36;;;;;;;0.80;0.80;;;20.70;72.00;;;;;;5047269;28;20468;-73
2022/08/30 03:24:03;;;;;;;0.80;0.73;;;20.70;72.00;;;;;;5048471;28;20515;-73
2022/08/30 03:26:30;;;;;;;0.90;0.90;;;20.70;72.30;;;;;;5049446;28;20479;-72
2022/08/30 03:28:56;;;;;;;0.80;0.80;;;20.70;72.40;;;;;;5043376;28;20447;-73
2022/08/30 03:31:23;;;;;;;1.00;0.90;;;20.70;72.50;;;;;;5035167;28;20468;-73
2022/08/30 03:33:50;;;;;;;0.80;0.80;;;20.70;72.50;;;;;;5035255;28;20547;-73
2022/08/30 03:36:18;;;;;;;0.70;0.70;;;20.70;72.50;;;;;;5035186;28;20447;-72
2022/08/30 03:38:45;;;;;;;0.80;0.77;;;20.70;72.50;;;;;;5035100;28;20502;-72
2022/08/30 03:41:12;;;;;;;0.90;0.90;;;20.60;72.90;;;;;;5034249;28;20474;-73
2022/08/30 03:43:39;;;;;;;0.83;0.80;;;20.60;72.80;;;;;;5034958;28;20450;-72
2022/08/30 03:46:06;;;;;;;0.90;0.90;;;20.60;72.90;;;;;;5034900;28;20514;-72
2022/08/30 03:48:33;;;;;;;0.80;0.80;;;20.60;73.00;;;;;;5034927;28;20542;-72
2022/08/30 03:50:59;;;;;;;0.70;0.70;;;20.50;73.00;;;;;;5034801;28;20471;-71
2022/08/30 03:53:27;;;;;;;0.80;0.80;;;20.50;73.10;;;;;;5034822;28;20447;-72
2022/08/30 03:55:54;;;;;;;0.80;0.80;;;20.50;73.10;;;;;;5034838;28;20448;-71
2022/08/30 03:58:21;;;;;;;0.90;0.90;;;20.50;73.20;;;;;;5034747;28;20444;-71
2022/08/30 04:00:48;;;;;;;0.83;0.83;;;20.50;73.30;;;;;;5034119;28;21048;-73
2022/08/30 04:03:14;;;;;;;1.00;0.90;;;20.40;73.10;;;;;;5034680;28;20432;-72
2022/08/30 04:05:41;;;;;;;1.00;0.90;;;20.40;73.20;;;;;;5034609;28;20509;-72
2022/08/30 04:08:08;;;;;;;1.00;1.00;;;20.40;73.20;;;;;;5034501;28;20439;-72
2022/08/30 04:10:37;;;;;;;1.03;0.93;;;20.40;73.20;;;;;;5034063;28;20448;-73
2022/08/30 04:13:04;;;;;;;1.17;1.00;;;20.40;73.00;;;;;;5034503;28;20490;-72
2022/08/30 04:15:31;;;;;;;1.07;1.03;;;20.40;73.00;;;;;;5034405;28;20443;-72
2022/08/30 04:17:57;;;;;;;0.93;0.83;;;20.30;73.40;;;;;;5034312;28;20451;-72
2022/08/30 04:20:24;;;;;;;0.90;0.90;;;20.20;73.60;;;;;;5034196;28;20498;-71
2022/08/30 04:22:51;;;;;;;0.90;0.90;;;20.20;73.80;;;;;;5034239;28;20444;-72
2022/08/30 04:25:17;;;;;;;1.00;1.00;;;20.20;73.80;;;;;;5034221;28;20444;-72
2022/08/30 04:27:46;;;;;;;0.90;0.90;;;20.20;73.90;;;;;;5033848;28;20935;-72
2022/08/30 04:30:14;;;;;;;0.90;0.80;;;20.20;73.90;;;;;;5034174;28;20444;-72
2022/08/30 04:32:41;;;;;;;1.10;1.00;;;20.20;74.00;;;;;;5034048;28;20467;-71
2022/08/30 04:35:08;;;;;;;0.90;0.90;;;20.10;74.10;;;;;;5034042;28;20444;-72
2022/08/30 04:37:34;;;;;;;0.80;0.80;;;20.20;74.00;;;;;;5034007;28;20447;-73
2022/08/30 04:40:01;;;;;;;1.00;1.00;;;20.10;74.20;;;;;;5033631;28;20451;-73
2022/08/30 04:42:31;;;;;;;1.07;0.90;;;20.10;74.30;;;;;;5033947;28;20503;-72
2022/08/30 04:44:59;;;;;;;1.10;0.90;;;20.10;74.30;;;;;;5033830;28;20538;-72
2022/08/30 04:47:26;;;;;;;0.93;0.90;;;20.10;74.40;;;;;;5033781;28;20483;-72
2022/08/30 04:49:53;;;;;;;0.80;0.80;;;20.10;74.40;;;;;;5033794;28;20443;-73
2022/08/30 04:52:19;;;;;;;0.80;0.80;;;20.10;74.50;;;;;;5033838;28;20522;-72
2022/08/30 04:54:46;;;;;;;1.00;1.00;;;20.10;74.50;;;;;;5033434;28;20871;-71
2022/08/30 04:57:13;;;;;;;1.10;1.03;;;20.10;74.50;;;;;;5033693;28;20447;-72
2022/08/30 04:59:40;;;;;;;0.70;0.70;;;20.10;74.60;;;;;;5033644;28;20448;-72
2022/08/30 05:02:07;;;;;;;0.93;0.93;;;20.10;74.70;;;;;;5033253;28;20528;-72
2022/08/30 05:04:34;;;;;;;1.00;0.90;;;20.10;74.80;;;;;;5033565;28;20451;-72
2022/08/30 05:07:01;;;;;;;0.90;0.90;;;20.10;74.70;;;;;;5033527;28;20471;-72
2022/08/30 05:09:27;;;;;;;1.03;0.90;;;20.20;74.80;;;;;;5033529;28;20451;-72
2022/08/30 05:11:54;;;;;;;0.83;0.83;;;20.30;74.70;;;;;;5033431;28;20537;-71
2022/08/30 05:14:21;;;;;;;1.07;1.00;;;20.40;74.80;;;;;;5033236;28;20932;-72
2022/08/30 05:16:48;;;;;;;1.10;1.00;;;20.50;74.60;;;;;;5033147;28;20856;-72
2022/08/30 05:19:16;;;;;;;0.90;0.90;;;20.70;74.40;;;;;;5033436;28;20455;-72
2022/08/30 05:21:42;;;;;;;0.97;0.90;;;20.80;74.60;;;;;;5033327;28;20539;-72
2022/08/30 05:24:09;;;;;;;1.10;1.00;;;21.00;74.10;;;;;;5033352;28;20440;-72
2022/08/30 05:26:38;;;;;;;0.90;0.90;;;21.20;73.60;;;;;;5033043;28;21036;-73
2022/08/30 05:29:05;;;;;;;1.00;0.90;;;21.40;73.60;;;;;;5033328;28;20474;-72
2022/08/30 05:31:34;;;;;;;1.10;1.00;;;21.50;72.30;;;;;;5033213;28;20476;-72
2022/08/30 05:34:01;;;;;;;1.20;1.10;;;21.70;71.20;;;;;;5033251;28;20443;-72
2022/08/30 05:36:33;;;;;;;1.07;1.07;;;21.80;70.70;;;;;;5032891;28;20447;-73
2022/08/30 05:39:00;;;;;;;1.10;0.90;;;21.90;70.50;;;;;;5033510;28;20524;-72
2022/08/30 05:41:27;;;;;;;1.20;1.10;;;21.70;70.80;;;;;;5033154;28;20495;-71
2022/08/30 05:43:54;;;;;;;0.83;0.83;;;21.70;70.90;;;;;;5032871;28;20951;-72
2022/08/30 05:46:21;;;;;;;1.20;1.00;;;21.70;70.90;;;;;;5033094;28;20482;-72
2022/08/30 05:48:48;;;;;;;1.43;1.33;;;21.70;70.90;;;;;;5032818;28;20961;-72
2022/08/30 05:51:17;;;;;;;1.40;1.30;;;21.70;70.90;;;;;;5033056;28;20476;-72
2022/08/30 05:53:46;;;;;;;1.00;1.00;;;21.80;70.70;;;;;;5033064;28;20459;-72
2022/08/30 05:56:15;;;;;;;1.03;1.03;;;21.80;70.90;;;;;;5033025;28;20474;-73
2022/08/30 05:58:42;;;;;;;1.20;1.10;;;21.80;70.90;;;;;;5033041;28;20447;-72
2022/08/30 06:01:19;;;;;;;0.90;0.90;;;21.90;70.60;;;;;;5032702;28;20487;-73
2022/08/30 06:03:46;;;;;;;0.80;0.80;;;21.90;70.70;;;;;;5034984;28;20439;-73
2022/08/30 06:06:12;;;;;;;0.90;0.90;;;22.20;70.50;;;;;;5036434;28;20483;-72
2022/08/30 06:08:39;;;;;;;1.57;1.00;;;22.60;69.40;;;;;;5036781;28;20871;-73
2022/08/30 06:11:07;;;;;;;1.20;1.10;;;23.10;67.80;;;;;;5036400;28;20979;-72
2022/08/30 06:13:34;;;;;;;0.97;0.97;;;23.50;66.60;;;;;;5036729;28;20478;-72
2022/08/30 06:16:00;;;;;;;0.93;0.93;;;24.10;65.50;;;;;;5036335;28;20946;-73
2022/08/30 06:18:27;;;;;;;0.80;0.80;;;25.00;63.90;;;;;;5036586;28;20451;-72
2022/08/30 06:20:54;;;;;;;1.10;1.10;;;25.90;61.50;;;;;;5036460;28;20537;-73
2022/08/30 06:23:21;;;;;;;1.20;1.10;;;26.70;59.50;;;;;;5036221;28;20949;-73
2022/08/30 06:25:47;;;;;;;1.20;1.20;;;27.40;57.20;;;;;;5037192;28;20542;-73
2022/08/30 06:28:16;;;;;;;1.20;1.10;;;28.10;56.00;;;;;;5036344;28;20529;-73
2022/08/30 06:30:43;;;;;;;1.13;1.00;;;28.70;54.50;;;;;;5036119;28;22130;-73
2022/08/30 06:33:10;;;;;;;1.40;1.30;;;29.40;53.80;;;;;;5036420;28;20447;-74
2022/08/30 06:35:38;;;;;;;1.10;1.00;;;29.90;52.40;;;;;;5041001;28;20452;-74
2022/08/30 06:38:05;;;;;;;1.20;1.10;;;30.30;51.40;;;;;;5049179;28;20451;-74
2022/08/30 06:40:32;;;;;;;1.43;0.93;;;30.40;50.90;;;;;;5049166;28;20451;-73
2022/08/30 06:42:58;;;;;;;1.30;1.20;;;30.70;51.10;;;;;;5048545;28;20456;-74
2022/08/30 06:45:26;;;;;;;1.17;1.07;;;30.90;50.10;;;;;;5048604;28;20452;-74
2022/08/30 06:47:53;;;;;;;1.67;1.20;;;30.90;50.80;;;;;;5049597;28;20479;-74
2022/08/30 06:50:30;;;;;;;1.00;1.00;;;31.50;50.00;;;;;;5051443;28;20451;-74
2022/08/30 06:53:03;;;;;;;1.00;1.00;;;31.70;49.60;;;;;;5052075;28;20451;-73
2022/08/30 06:55:32;;;;;;;1.23;1.13;;;31.60;50.10;;;;;;5050225;28;20440;-74
2022/08/30 06:57:59;;;;;;;0.90;0.90;;;31.20;50.20;;;;;;5048526;28;20455;-74
2022/08/30 07:00:28;;;;;;;0.90;0.90;;;30.70;51.00;;;;;;5050444;28;20452;-73
2022/08/30 07:02:56;;;;;;;1.40;1.30;;;29.70;53.40;;;;;;5051551;28;20459;-73
2022/08/30 07:05:23;;;;;;;1.20;1.10;;;29.10;54.20;;;;;;5051054;28;20523;-73
2022/08/30 07:07:52;;;;;;;1.03;0.93;;;28.40;56.20;;;;;;5050764;28;20475;-74
2022/08/30 07:10:20;;;;;;;1.20;1.10;;;28.20;57.30;;;;;;5050316;28;20474;-73
2022/08/30 07:12:47;;;;;;;1.23;1.13;;;27.90;57.90;;;;;;5050791;28;20494;-73
2022/08/30 07:15:14;;;;;;;1.30;1.20;;;27.50;59.00;;;;;;5048379;28;20543;-74
2022/08/30 07:20:27;;;;;;;1.40;1.10;;;27.60;58.30;;;;;;5052531;28;20411;-73
2022/08/30 07:22:53;;;;;;;0.90;0.90;;;27.10;58.70;;;;;;5049865;28;20444;-73
2022/08/30 07:25:20;;;;;;;1.13;0.90;;;26.70;59.50;;;;;;5048772;28;20554;-74
2022/08/30 07:27:49;;;;;;;1.43;1.23;;;26.60;59.70;;;;;;5048561;28;20483;-73
2022/08/30 07:30:15;;;;;;;2.40;1.00;;;26.50;59.70;;;;;;5049617;28;20478;-73
2022/08/30 07:32:43;;;;;;;0.90;0.90;;;26.30;59.90;;;;;;5051219;28;20470;-74
2022/08/30 07:35:10;;;;;;;2.43;1.07;;;26.20;60.90;;;;;;5050460;28;20455;-73
2022/08/30 07:37:37;;;;;;;0.97;0.97;;;26.20;61.10;;;;;;5049877;28;20439;-74
2022/08/30 07:40:04;;;;;;;1.00;1.00;;;26.30;61.10;;;;;;5049087;28;20454;-75
2022/08/30 07:42:31;;;;;;;1.10;1.00;;;25.90;61.30;;;;;;5048582;28;20491;-73
2022/08/30 07:44:58;;;;;;;1.00;1.00;;;25.70;62.20;;;;;;5048027;28;20992;-75
2022/08/30 07:47:24;;;;;;;1.80;1.30;;;25.50;63.60;;;;;;5043668;28;20489;-74
2022/08/30 07:49:52;;;;;;;1.27;1.17;;;25.20;64.40;;;;;;5042779;28;20966;-73
2022/08/30 07:52:22;;;;;;;1.03;1.00;;;25.30;64.40;;;;;;5042541;28;20546;-74
2022/08/30 07:54:49;;;;;;;1.43;1.10;;;25.40;63.30;;;;;;5043047;28;20447;-74
2022/08/30 07:57:16;;;;;;;1.10;1.00;;;25.30;64.20;;;;;;5042537;28;20451;-73
2022/08/30 07:59:42;;;;;;;1.20;1.00;;;25.30;64.80;;;;;;5042845;28;20447;-74
2022/08/30 08:02:12;;;;;;;1.10;1.00;;;25.40;63.80;;;;;;5041562;28;20486;-73
2022/08/30 08:04:39;;;;;;;1.00;0.90;;;25.40;63.80;;;;;;5042073;28;20454;-74
2022/08/30 08:07:07;;;;;;;1.10;1.00;;;25.50;64.40;;;;;;5041416;28;20515;-73
2022/08/30 08:09:34;;;;;;;0.80;0.80;;;25.30;64.50;;;;;;5041387;28;20456;-74
2022/08/30 08:12:03;;;;;;;1.10;1.00;;;25.30;64.60;;;;;;5041721;28;20467;-73
2022/08/30 08:14:30;;;;;;;0.90;0.90;;;25.20;64.80;;;;;;5041784;28;20451;-73
2022/08/30 08:16:56;;;;;;;0.90;0.90;;;25.50;64.90;;;;;;5041981;28;20444;-73
2022/08/30 08:19:23;;;;;;;1.20;1.10;;;25.80;64.30;;;;;;5042444;28;20798;-74
2022/08/30 08:21:53;;;;;;;1.00;0.90;;;26.00;63.30;;;;;;5042636;28;20478;-73
2022/08/30 08:24:21;;;;;;;0.80;0.80;;;26.00;62.70;;;;;;5042233;28;20459;-73
2022/08/30 08:26:48;;;;;;;0.80;0.80;;;26.30;62.90;;;;;;5041741;28;20482;-73
2022/08/30 08:29:15;;;;;;;0.80;0.80;;;26.40;61.10;;;;;;5042807;28;20458;-73
2022/08/30 08:31:44;;;;;;;0.90;0.90;;;26.50;60.90;;;;;;5043783;28;20467;-73
2022/08/30 08:34:11;;;;;;;0.97;0.93;;;26.70;61.20;;;;;;5042983;28;20542;-73
2022/08/30 08:36:39;;;;;;;1.40;1.00;;;26.50;61.00;;;;;;5042443;28;20452;-74
2022/08/30 08:39:08;;;;;;;0.80;0.80;;;26.30;60.70;;;;;;5042082;28;20804;-73
2022/08/30 08:41:52;;;;;;;1.13;1.03;;;26.40;60.90;;;;;;5039283;28;20467;-73
2022/08/30 08:44:28;;;;;;;0.90;0.80;;;26.10;61.60;;;;;;5038927;28;20434;-73
2022/08/30 08:47:02;;;;;;;1.03;0.93;;;26.10;61.80;;;;;;5039624;28;20439;-74
2022/08/30 08:49:29;;;;;;;0.87;0.87;;;26.20;61.60;;;;;;5038946;28;20450;-73
2022/08/30 08:54:48;;;;;;;1.73;1.03;;;26.40;62.60;;;;;;5038718;28;20415;-75
2022/08/30 08:57:17;;;;;;;0.80;0.70;;;26.40;61.50;;;;;;5036373;28;20420;-73
2022/08/30 08:59:44;;;;;;;0.90;0.90;;;26.50;60.40;;;;;;5033766;28;20856;-73
2022/08/30 09:02:22;;;;;;;0.80;0.80;;;26.40;61.60;;;;;;5033407;28;20919;-74
2022/08/30 09:04:51;;;;;;;1.00;0.90;;;26.70;60.90;;;;;;5033854;28;20431;-74
2022/08/30 09:07:22;;;;;;;0.90;0.90;;;26.70;59.80;;;;;;5033585;28;20486;-74
2022/08/30 09:09:49;;;;;;;0.80;0.80;;;26.70;60.70;;;;;;5033692;28;20439;-74
2022/08/30 09:12:17;;;;;;;1.00;0.90;;;27.10;60.60;;;;;;5033424;28;20886;-73
2022/08/30 09:14:49;;;;;;;0.90;0.90;;;27.20;58.90;;;;;;5034676;28;20954;-73
2022/08/30 09:17:17;;;;;;;1.20;0.73;;;27.10;59.10;;;;;;5033534;28;20819;-73
2022/08/30 09:19:46;;;;;;;2.03;0.90;;;27.30;59.30;;;;;;5033465;28;20454;-73
2022/08/30 09:22:21;;;;;;;0.70;0.70;;;27.70;58.50;;;;;;5033378;28;20463;-74
2022/08/30 09:24:50;;;;;;;0.90;0.90;;;27.60;57.20;;;;;;5033466;28;20874;-72
2022/08/30 09:27:25;;;;;;;1.13;0.80;;;27.60;57.30;;;;;;5033410;28;20487;-73
2022/08/30 09:29:56;;;;;;;0.80;0.80;;;27.80;57.60;;;;;;5033418;28;20427;-74
2022/08/30 09:32:25;;;;;;;0.90;0.80;;;27.90;57.90;;;;;;5033309;28;20467;-74
2022/08/30 09:34:51;;;;;;;1.00;0.80;;;27.90;56.90;;;;;;5033313;28;20448;-73
2022/08/30 09:37:37;;;;;;;0.80;0.80;;;28.10;57.30;;;;;;5033291;28;20448;-74
2022/08/30 09:40:11;;;;;;;1.00;0.70;;;28.10;57.20;;;;;;5037392;28;20435;-73
2022/08/30 09:42:39;;;;;;;0.90;0.90;;;28.00;57.10;;;;;;5037300;28;20513;-73
2022/08/30 09:45:18;;;;;;;0.80;0.80;;;28.00;56.60;;;;;;5037248;28;20493;-73
2022/08/30 09:47:45;;;;;;;0.90;0.90;;;28.00;57.20;;;;;;5037185;28;20510;-73
2022/08/30 09:50:15;;;;;;;0.80;0.73;;;28.30;57.60;;;;;;5037231;28;20501;-73
2022/08/30 09:53:10;;;;;;;0.73;0.73;;;28.30;56.80;;;;;;5036842;28;20463;-73
2022/08/30 09:56:02;;;;;;;0.70;0.70;;;28.40;57.20;;;;;;5037154;28;20502;-73
2022/08/30 09:58:53;;;;;;;0.70;0.70;;;28.10;57.60;;;;;;5036902;28;20904;-74
2022/08/30 10:01:24;;;;;;;0.80;0.80;;;28.20;56.40;;;;;;5036748;28;20479;-72
2022/08/30 10:04:00;;;;;;;0.70;0.70;;;28.10;56.10;;;;;;5044112;28;20957;-74
2022/08/30 10:06:33;;;;;;;0.80;0.80;;;28.20;55.40;;;;;;5044808;28;20427;-74
2022/08/30 10:09:14;;;;;;;0.70;0.70;;;28.20;55.00;;;;;;5045389;28;20486;-74
2022/08/30 10:11:50;;;;;;;0.70;0.70;;;28.20;55.40;;;;;;5044858;28;20463;-74
2022/08/30 10:14:40;;;;;;;0.80;0.80;;;28.10;55.70;;;;;;5044101;28;20435;-73
2022/08/30 10:17:12;;;;;;;0.80;0.80;;;28.00;55.90;;;;;;5036790;28;20857;-73
2022/08/30 10:19:51;;;;;;;0.93;0.83;;;27.90;56.00;;;;;;5036443;28;20899;-74
2022/08/30 10:22:24;;;;;;;0.70;0.70;;;27.80;55.10;;;;;;5036650;28;20474;-74
2022/08/30 10:24:56;;;;;;;0.80;0.77;;;27.70;57.50;;;;;;5036664;28;20431;-74
2022/08/30 10:27:28;;;;;;;1.00;0.90;;;27.90;55.80;;;;;;5036479;28;20432;-73
2022/08/30 10:30:01;;;;;;;0.80;0.80;;;28.00;54.80;;;;;;5036463;28;20495;-73
2022/08/30 10:32:33;;;;;;;1.97;0.90;;;27.80;57.50;;;;;;5036575;28;20467;-74
2022/08/30 10:35:05;;;;;;;0.70;0.70;;;28.10;56.60;;;;;;5036510;28;20435;-74
2022/08/30 10:37:38;;;;;;;0.80;0.80;;;28.10;55.40;;;;;;5036465;28;20436;-73
2022/08/30 10:42:56;;;;;;;1.37;0.70;;;28.90;54.10;;;;;;5035730;28;20521;-74
2022/08/30 10:45:26;;;;;;;1.07;0.97;;;29.10;52.80;;;;;;5036235;28;20444;-73
2022/08/30 10:48:00;;;;;;;0.80;0.77;;;29.00;53.20;;;;;;5036069;28;20528;-74
2022/08/30 10:50:30;;;;;;;0.80;0.77;;;28.90;53.10;;;;;;5035923;28;20797;-74
2022/08/30 10:53:03;;;;;;;0.70;0.70;;;28.60;53.20;;;;;;5036072;28;20439;-74
2022/08/30 10:55:35;;;;;;;1.00;0.70;;;28.50;53.50;;;;;;5036065;28;20482;-74
2022/08/30 10:58:04;;;;;;;0.80;0.70;;;28.60;53.10;;;;;;5036006;28;20490;-74
2022/08/30 11:00:47;;;;;;;0.70;0.60;;;28.80;52.40;;;;;;5037379;28;20853;-73
2022/08/30 11:03:45;;;;;;;0.80;0.80;;;29.10;52.40;;;;;;5044908;28;20454;-73
2022/08/30 11:06:19;;;;;;;0.70;0.70;;;29.30;51.60;;;;;;5044250;28;20935;-74
2022/08/30 11:09:21;;;;;;;0.70;0.60;;;29.30;50.00;;;;;;5044492;28;20470;-74
2022/08/30 11:12:12;;;;;;;0.70;0.70;;;29.40;50.10;;;;;;5045048;28;20481;-73
2022/08/30 11:14:41;;;;;;;0.80;0.70;;;29.60;48.70;;;;;;5044790;28;20435;-74
2022/08/30 11:17:25;;;;;;;0.80;0.70;;;29.90;49.10;;;;;;5044659;28;20450;-73
2022/08/30 11:19:53;;;;;;;0.80;0.80;;;29.60;50.20;;;;;;5043669;28;20443;-75
2022/08/30 11:22:25;;;;;;;0.70;0.60;;;29.80;49.00;;;;;;5043597;28;20494;-74
2022/08/30 11:25:16;;;;;;;0.80;0.70;;;30.00;48.50;;;;;;5044059;28;20428;-73
2022/08/30 11:27:51;;;;;;;0.70;0.70;;;30.10;49.60;;;;;;5025311;28;20462;-74
2022/08/30 11:30:49;;;;;;;0.70;0.70;;;30.20;49.60;;;;;;5035431;28;20424;-75
2022/08/30 11:33:40;;;;;;;0.73;0.70;;;29.80;50.10;;;;;;5035321;28;20450;-74
2022/08/30 11:36:09;;;;;;;0.80;0.70;;;29.70;50.60;;;;;;5038809;28;20420;-76
2022/08/30 11:39:05;;;;;;;0.93;0.80;;;29.70;50.30;;;;;;5041554;28;20447;-76
2022/08/30 11:41:35;;;;;;;0.90;0.90;;;29.90;50.40;;;;;;5002494;28;20853;-74
2022/08/30 11:44:31;;;;;;;0.80;0.80;;;30.00;50.20;;;;;;5035276;28;20440;-75
2022/08/30 11:47:00;;;;;;;0.70;0.60;;;30.10;49.90;;;;;;5035030;28;20478;-74
2022/08/30 11:49:56;;;;;;;0.80;0.70;;;29.90;50.40;;;;;;5034621;28;20994;-74
2022/08/30 11:52:41;;;;;;;0.70;0.60;;;29.90;50.70;;;;;;5034512;28;20823;-74
2022/08/30 11:55:25;;;;;;;0.73;0.73;;;30.10;51.00;;;;;;5035004;28;20428;-74
2022/08/30 11:58:00;;;;;;;0.70;0.70;;;29.90;50.20;;;;;;5034931;28;20439;-75
2022/08/30 12:00:32;;;;;;;0.80;0.70;;;29.70;50.20;;;;;;5034254;28;20436;-74
2022/08/30 12:03:01;;;;;;;0.70;0.70;;;29.60;50.40;;;;;;5034392;28;20910;-74
2022/08/30 12:05:49;;;;;;;0.70;0.70;;;29.60;51.60;;;;;;5034688;28;20451;-74
2022/08/30 12:08:50;;;;;;;0.70;0.70;;;29.80;50.40;;;;;;5034577;28;20483;-75
2022/08/30 12:12:03;;;;;;;1.00;0.70;;;29.60;51.20;;;;;;5034471;28;20537;-74
2022/08/30 12:14:43;;;;;;;0.80;0.70;;;29.70;51.50;;;;;;5034587;28;20428;-74
2022/08/30 12:20:18;;;;;;;0.80;0.80;;;29.90;49.20;;;;;;5034582;28;20399;-75
2022/08/30 12:22:47;;;;;;;0.80;0.70;;;29.80;50.30;;;;;;5034353;28;20873;-75
2022/08/30 12:25:24;;;;;;;0.77;0.77;;;30.00;49.70;;;;;;5034357;28;20455;-74
2022/08/30 12:27:51;;;;;;;0.77;0.77;;;29.80;50.50;;;;;;5034270;28;20450;-75
2022/08/30 12:30:27;;;;;;;0.70;0.70;;;29.80;50.90;;;;;;5034205;28;20451;-74
2022/08/30 12:32:54;;;;;;;0.70;0.67;;;29.60;50.10;;;;;;5034327;28;20462;-75
2022/08/30 12:35:26;;;;;;;0.70;0.60;;;29.40;50.60;;;;;;5034171;28;20451;-74
2022/08/30 12:38:01;;;;;;;0.97;0.80;;;29.30;49.80;;;;;;5034205;28;20857;-74
2022/08/30 12:40:31;;;;;;;1.00;0.80;;;29.50;50.40;;;;;;5033721;28;20907;-74
2022/08/30 12:43:00;;;;;;;0.80;0.80;;;29.70;49.70;;;;;;5034980;28;20483;-75
2022/08/30 12:45:28;;;;;;;0.80;0.80;;;29.80;49.80;;;;;;5033980;28;20447;-75
2022/08/30 12:47:58;;;;;;;0.80;0.60;;;29.50;49.80;;;;;;5033876;28;20456;-74
2022/08/30 12:50:28;;;;;;;0.80;0.80;;;29.30;49.50;;;;;;5033858;28;20447;-74
2022/08/30 12:53:02;;;;;;;0.80;0.80;;;29.20;50.20;;;;;;5033882;28;20452;-74
2022/08/30 12:55:30;;;;;;;1.07;0.70;;;29.00;50.60;;;;;;5033834;28;20428;-74
2022/08/30 12:58:01;;;;;;;0.80;0.80;;;29.40;50.90;;;;;;5033790;28;20444;-74
2022/08/30 13:00:30;;;;;;;0.70;0.70;;;29.60;50.20;;;;;;5035383;28;20444;-74
2022/08/30 13:02:59;;;;;;;0.73;0.73;;;29.90;49.70;;;;;;5044898;28;20451;-75
2022/08/30 13:05:33;;;;;;;0.70;0.70;;;29.70;48.80;;;;;;5037396;28;20546;-75
2022/08/30 13:08:11;;;;;;;0.80;0.70;;;29.90;48.90;;;;;;5033545;28;20432;-74
2022/08/30 13:10:53;;;;;;;0.77;0.70;;;30.40;49.10;;;;;;5033578;28;20483;-74
2022/08/30 13:13:34;;;;;;;0.90;0.80;;;30.80;48.40;;;;;;5032715;28;20424;-75
2022/08/30 13:16:21;;;;;;;1.00;0.60;;;31.10;47.20;;;;;;5033601;28;20436;-75
2022/08/30 13:18:49;;;;;;;0.80;0.70;;;31.20;46.50;;;;;;5033549;28;20431;-74
2022/08/30 13:21:22;;;;;;;0.70;0.70;;;31.50;46.50;;;;;;5033116;28;20475;-75
2022/08/30 13:23:55;;;;;;;0.70;0.67;;;31.80;46.60;;;;;;5033473;28;20497;-75
2022/08/30 13:26:21;;;;;;;0.70;0.70;;;31.40;46.40;;;;;;5033487;28;20460;-74
2022/08/30 13:28:50;;;;;;;0.70;0.70;;;30.90;47.30;;;;;;5033361;28;20480;-74
2022/08/30 13:31:17;;;;;;;0.70;0.70;;;31.10;46.50;;;;;;5032984;28;20991;-75
2022/08/30 13:33:45;;;;;;;0.70;0.67;;;31.30;45.80;;;;;;5033375;28;20448;-75
2022/08/30 13:36:13;;;;;;;0.70;0.70;;;31.30;46.50;;;;;;5033388;28;20538;-75
2022/08/30 13:38:40;;;;;;;0.70;0.70;;;30.80;46.30;;;;;;5033256;28;20454;-74
2022/08/30 13:41:08;;;;;;;0.70;0.63;;;30.50;47.40;;;;;;5033375;28;20467;-74
2022/08/30 13:43:35;;;;;;;0.80;0.80;;;30.20;47.70;;;;;;5033207;28;20451;-74
2022/08/30 13:46:02;;;;;;;0.70;0.67;;;30.20;48.30;;;;;;5032874;28;20452;-75
2022/08/30 13:48:28;;;;;;;0.70;0.67;;;30.30;48.80;;;;;;5033669;28;20451;-75
2022/08/30 13:50:55;;;;;;;0.73;0.70;;;30.30;48.40;;;;;;5033151;28;20463;-74
2022/08/30 13:53:22;;;;;;;0.80;0.63;;;30.30;48.00;;;;;;5032882;28;20961;-74
2022/08/30 13:55:49;;;;;;;1.83;0.77;;;30.60;48.60;;;;;;5033023;28;21001;-75
2022/08/30 13:58:17;;;;;;;0.70;0.60;;;30.60;47.80;;;;;;5032846;28;20858;-75
2022/08/30 14:00:45;;;;;;;0.70;0.60;;;30.80;48.20;;;;;;5033012;28;20471;-75
2022/08/30 14:03:12;;;;;;;0.70;0.60;;;30.90;47.40;;;;;;5033738;28;20519;-74
2022/08/30 14:05:40;;;;;;;0.70;0.70;;;30.90;47.30;;;;;;5032818;28;20955;-74
2022/08/30 14:08:08;;;;;;;0.80;0.80;;;31.10;46.90;;;;;;5032684;28;20923;-75
2022/08/30 14:10:37;;;;;;;0.70;0.60;;;31.10;46.40;;;;;;5032869;28;20533;-74
2022/08/30 14:13:04;;;;;;;0.70;0.70;;;30.90;46.80;;;;;;5032958;28;20494;-74
2022/08/30 14:15:33;;;;;;;0.80;0.70;;;30.60;47.20;;;;;;5033098;28;20531;-75
2022/08/30 14:18:00;;;;;;;0.87;0.70;;;30.50;47.60;;;;;;5032611;28;20907;-75
2022/08/30 14:20:28;;;;;;;0.90;0.77;;;30.40;47.60;;;;;;5032601;28;21004;-75
2022/08/30 14:22:55;;;;;;;0.80;0.70;;;30.40;47.70;;;;;;5032945;28;20450;-75
2022/08/30 14:25:22;;;;;;;0.80;0.60;;;30.00;48.00;;;;;;5035712;28;20448;-75
2022/08/30 14:27:49;;;;;;;0.70;0.70;;;29.90;48.60;;;;;;5036526;28;20509;-74
2022/08/30 14:30:16;;;;;;;0.80;0.67;;;30.00;48.50;;;;;;5036443;28;20487;-74
2022/08/30 14:32:43;;;;;;;0.80;0.70;;;30.40;48.30;;;;;;5036445;28;20459;-75
2022/08/30 14:35:10;;;;;;;0.80;0.80;;;30.70;47.20;;;;;;5036403;28;20562;-74
2022/08/30 14:37:37;;;;;;;0.70;0.70;;;30.80;46.60;;;;;;5036387;28;20451;-74
2022/08/30 14:40:04;;;;;;;0.70;0.70;;;31.20;45.90;;;;;;5036425;28;20451;-75
2022/08/30 14:42:31;;;;;;;0.80;0.80;;;31.50;45.70;;;;;;5036300;28;20471;-75
2022/08/30 14:44:57;;;;;;;0.70;0.60;;;31.40;45.60;;;;;;5035949;28;20831;-75
2022/08/30 14:47:24;;;;;;;0.70;0.70;;;31.60;45.90;;;;;;5036240;28;20444;-73
2022/08/30 14:49:52;;;;;;;1.30;0.80;;;32.10;44.50;;;;;;5036038;28;20475;-74
2022/08/30 14:52:19;;;;;;;0.80;0.80;;;32.40;44.40;;;;;;5036041;28;20472;-74
2022/08/30 14:54:47;;;;;;;0.70;0.60;;;32.90;43.30;;;;;;5036042;28;20501;-75
2022/08/30 14:57:13;;;;;;;0.70;0.70;;;33.60;42.80;;;;;;5036028;28;20451;-75
2022/08/30 14:59:40;;;;;;;0.80;0.60;;;34.30;42.00;;;;;;5035664;28;20444;-74
2022/08/30 15:02:07;;;;;;;0.80;0.70;;;35.10;40.60;;;;;;5035400;28;20861;-75
2022/08/30 15:04:34;;;;;;;0.70;0.67;;;35.50;40.30;;;;;;5035644;28;20451;-75
2022/08/30 15:07:02;;;;;;;1.10;0.60;;;35.70;39.50;;;;;;5035842;28;20444;-75
2022/08/30 15:09:31;;;;;;;0.70;0.60;;;35.80;39.60;;;;;;5035778;28;20483;-75
2022/08/30 15:12:00;;;;;;;0.70;0.70;;;35.00;39.80;;;;;;5035704;28;20470;-75
2022/08/30 15:14:27;;;;;;;0.70;0.60;;;34.10;41.50;;;;;;5037195;28;20458;-75
2022/08/30 15:16:55;;;;;;;0.90;0.60;;;33.60;42.10;;;;;;5040161;28;20448;-74
2022/08/30 15:19:21;;;;;;;0.77;0.73;;;33.50;42.40;;;;;;5048657;28;20458;-75
2022/08/30 15:21:48;;;;;;;0.80;0.70;;;33.30;42.60;;;;;;5050152;28;20506;-74
2022/08/30 15:24:18;;;;;;;0.70;0.60;;;33.60;42.20;;;;;;5035741;28;20470;-74
2022/08/30 15:26:45;;;;;;;0.70;0.67;;;33.60;42.60;;;;;;5035417;28;20448;-75
2022/08/30 15:29:14;;;;;;;0.70;0.67;;;33.70;42.20;;;;;;5034960;28;21031;-74
2022/08/30 15:31:42;;;;;;;0.70;0.60;;;33.40;42.70;;;;;;5035007;28;21000;-74
2022/08/30 15:34:09;;;;;;;0.70;0.70;;;32.40;43.50;;;;;;5035277;28;20444;-73
2022/08/30 15:36:37;;;;;;;0.70;0.70;;;31.20;44.90;;;;;;5034245;28;20455;-73
2022/08/30 15:39:04;;;;;;;0.70;0.70;;;31.20;45.70;;;;;;5035166;28;20494;-75
2022/08/30 15:41:34;;;;;;;0.70;0.70;;;31.10;46.30;;;;;;5035083;28;20549;-75
2022/08/30 15:44:01;;;;;;;0.70;0.70;;;30.80;46.50;;;;;;5035111;28;20454;-75
2022/08/30 15:46:30;;;;;;;0.70;0.60;;;30.50;47.40;;;;;;5044214;28;20822;-74
2022/08/30 15:48:59;;;;;;;0.70;0.70;;;30.50;47.30;;;;;;5047638;28;20467;-74
2022/08/30 15:51:26;;;;;;;0.70;0.70;;;30.50;47.30;;;;;;5047787;28;20526;-75
2022/08/30 15:53:53;;;;;;;0.70;0.70;;;30.40;48.00;;;;;;5048071;28;20482;-75
2022/08/30 15:56:20;;;;;;;1.17;0.80;;;30.50;47.60;;;;;;5047455;28;20443;-74
2022/08/30 15:58:48;;;;;;;0.70;0.60;;;30.40;48.00;;;;;;5047523;28;20439;-74
2022/08/30 16:01:16;;;;;;;0.70;0.70;;;30.20;48.20;;;;;;5046839;28;20836;-74
2022/08/30 16:03:44;;;;;;;0.80;0.70;;;30.00;48.60;;;;;;5047321;28;20447;-75
2022/08/30 16:06:13;;;;;;;0.70;0.70;;;29.80;49.50;;;;;;5047452;28;20457;-75
2022/08/30 16:08:40;;;;;;;0.70;0.60;;;29.70;49.30;;;;;;5047172;28;20455;-74
2022/08/30 16:11:08;;;;;;;0.70;0.70;;;29.60;49.40;;;;;;5047045;28;20499;-75
2022/08/30 16:13:35;;;;;;;0.70;0.60;;;29.50;49.40;;;;;;5047242;28;20448;-75
2022/08/30 16:16:04;;;;;;;0.70;0.70;;;29.50;49.40;;;;;;5046899;28;20973;-74